createdAt,value
2023-03-22T00:03:20.219Z,39.85
2023-03-22T00:07:20.096Z,39.87
2023-03-22T00:11:20.012Z,39.84
2023-03-22T00:15:19.915Z,39.83
2023-03-22T00:19:19.828Z,39.86
2023-03-22T00:23:19.751Z,39.88
2023-03-22T00:27:19.662Z,39.85
2023-03-22T00:31:19.632Z,39.86
2023-03-22T00:35:19.535Z,39.87
2023-03-22T00:39:19.421Z,39.87
2023-03-22T00:43:19.339Z,39.89
2023-03-22T00:47:19.350Z,39.90
2023-03-22T00:51:19.164Z,39.89
2023-03-22T00:55:19.079Z,39.84
2023-03-22T00:59:19.377Z,39.85
2023-03-22T01:03:18.960Z,39.84
2023-03-22T01:07:18.841Z,39.85
2023-03-22T01:11:18.778Z,39.88
2023-03-22T01:15:18.689Z,39.85
2023-03-22T01:19:18.606Z,39.87
2023-03-22T01:23:18.537Z,39.86
2023-03-22T01:27:18.858Z,39.87
2023-03-22T01:31:18.534Z,39.89
2023-03-22T01:35:18.350Z,39.85
2023-03-22T01:39:18.276Z,39.89
2023-03-22T01:43:18.270Z,39.88
2023-03-22T01:47:18.138Z,39.91
2023-03-22T01:51:18.070Z,39.92
2023-03-22T01:55:18.012Z,39.89
2023-03-22T01:59:17.941Z,39.87
2023-03-22T02:03:17.866Z,39.90
2023-03-22T02:07:17.802Z,39.90
2023-03-22T02:11:17.751Z,39.88
2023-03-22T02:15:17.670Z,39.87
2023-03-22T02:19:17.623Z,39.91
2023-03-22T02:23:17.560Z,39.92
2023-03-22T02:27:17.535Z,39.94
2023-03-22T02:31:17.427Z,39.96
2023-03-22T02:35:17.358Z,39.98
2023-03-22T02:39:17.254Z,39.95
2023-03-22T02:43:17.175Z,39.93
2023-03-22T02:47:17.145Z,39.95
2023-03-22T02:51:16.984Z,39.87
2023-03-22T02:55:16.883Z,39.85
2023-03-22T02:59:16.782Z,39.81
2023-03-22T03:03:16.677Z,39.81
2023-03-22T03:07:16.596Z,39.78
2023-03-22T03:11:16.504Z,39.79
2023-03-22T03:15:16.903Z,39.83
2023-03-22T03:19:16.280Z,39.76
2023-03-22T03:23:16.194Z,39.78
2023-03-22T03:27:16.157Z,39.80
2023-03-22T03:31:16.046Z,39.83
2023-03-22T03:35:15.907Z,39.81
2023-03-22T03:39:15.799Z,39.81
2023-03-22T03:43:15.757Z,39.84
2023-03-22T03:47:15.568Z,39.86
2023-03-22T03:51:15.462Z,39.94
2023-03-22T03:55:15.355Z,40.02
2023-03-22T03:59:15.258Z,40.07
2023-03-22T04:03:15.170Z,40.12
2023-03-22T04:07:15.183Z,40.15
2023-03-22T04:11:14.981Z,40.12
2023-03-22T04:15:14.900Z,40.19
2023-03-22T04:19:14.817Z,40.17
2023-03-22T04:23:14.724Z,40.10
2023-03-22T04:27:14.918Z,40.14
2023-03-22T04:31:14.561Z,40.21
2023-03-22T04:35:15.419Z,40.23
2023-03-22T04:39:14.382Z,40.21
2023-03-22T04:43:14.289Z,40.19
2023-03-22T04:47:14.221Z,40.19
2023-03-22T04:51:14.130Z,40.23
2023-03-22T04:55:14.052Z,40.29
2023-03-22T04:59:13.972Z,40.29
2023-03-22T05:03:13.912Z,40.31
2023-03-22T05:07:13.808Z,40.30
2023-03-22T05:11:13.720Z,40.31
2023-03-22T05:15:13.652Z,40.32
2023-03-22T05:19:13.989Z,40.28
2023-03-22T05:23:13.533Z,40.33
2023-03-22T05:27:13.435Z,40.36
2023-03-22T05:31:13.417Z,40.36
2023-03-22T05:35:13.329Z,40.34
2023-03-22T05:39:13.246Z,40.37
2023-03-22T05:43:13.194Z,40.37
2023-03-22T05:47:13.120Z,40.39
2023-03-22T05:51:13.050Z,40.37
2023-03-22T05:55:13.007Z,40.41
2023-03-22T05:59:12.940Z,40.42
2023-03-22T06:03:14.647Z,40.39
2023-03-22T06:07:12.953Z,40.41
2023-03-22T06:11:12.368Z,40.43
2023-03-22T06:15:12.126Z,40.45
2023-03-22T06:19:11.868Z,40.48
2023-03-22T06:23:11.711Z,40.49
2023-03-22T06:27:11.335Z,40.45
2023-03-22T06:31:11.166Z,40.44
2023-03-22T06:35:10.840Z,40.47
2023-03-22T06:39:11.400Z,40.45
2023-03-22T06:43:10.361Z,40.44
2023-03-22T06:47:10.202Z,40.48
2023-03-22T06:51:10.475Z,40.47
2023-03-22T06:55:10.035Z,40.50
2023-03-22T06:59:09.980Z,40.50
2023-03-22T07:03:09.928Z,40.49
2023-03-22T07:07:09.854Z,40.46
2023-03-22T07:11:09.789Z,40.44
2023-03-22T07:15:09.800Z,40.41
2023-03-22T07:19:09.970Z,40.44
2023-03-22T07:23:09.623Z,40.45
2023-03-22T07:27:09.590Z,40.47
2023-03-22T07:31:09.548Z,40.43
2023-03-22T07:35:09.496Z,40.43
2023-03-22T07:39:09.450Z,40.42
2023-03-22T07:43:09.376Z,40.42
2023-03-22T07:47:09.340Z,40.43
2023-03-22T07:51:09.397Z,40.36
2023-03-22T07:55:09.234Z,40.39
2023-03-22T07:59:09.946Z,40.38
2023-03-22T08:03:09.155Z,40.38
2023-03-22T08:07:09.089Z,40.41
2023-03-22T08:11:08.990Z,40.40
2023-03-22T08:15:08.945Z,40.40
2023-03-22T08:19:08.850Z,40.40
2023-03-22T08:23:08.769Z,40.45
2023-03-22T08:27:08.710Z,40.48
2023-03-22T08:31:08.657Z,40.49
2023-03-22T08:35:08.596Z,40.49
2023-03-22T08:39:08.534Z,40.44
2023-03-22T08:43:08.494Z,40.45
2023-03-22T08:47:08.435Z,40.37
2023-03-22T08:51:08.376Z,40.38
2023-03-22T08:55:08.310Z,40.36
2023-03-22T08:59:08.224Z,40.34
2023-03-22T09:03:08.149Z,40.37
2023-03-22T09:07:08.075Z,40.42
2023-03-22T09:11:08.019Z,40.35
2023-03-22T09:15:07.947Z,40.34
2023-03-22T09:19:07.863Z,40.37
2023-03-22T09:23:07.778Z,40.42
2023-03-22T09:27:07.713Z,40.44
2023-03-22T09:31:07.711Z,40.39
2023-03-22T09:35:07.649Z,40.36
2023-03-22T09:39:07.580Z,40.44
2023-03-22T09:43:07.543Z,40.44
2023-03-22T09:47:07.530Z,40.46
2023-03-22T09:51:08.016Z,40.47
2023-03-22T09:55:07.457Z,40.47
2023-03-22T09:59:07.433Z,40.49
2023-03-22T10:03:07.407Z,40.49
2023-03-22T10:07:07.357Z,40.48
2023-03-22T10:11:07.332Z,40.50
2023-03-22T10:15:07.279Z,40.49
2023-03-22T10:19:07.268Z,40.46
2023-03-22T10:23:07.255Z,40.43
2023-03-22T10:27:07.225Z,40.44
2023-03-22T10:31:07.267Z,40.48
2023-03-22T10:35:07.205Z,40.48
2023-03-22T10:39:07.180Z,40.45
2023-03-22T10:43:07.123Z,40.47
2023-03-22T10:47:07.207Z,40.48
2023-03-22T10:51:07.053Z,40.48
2023-03-22T10:55:07.015Z,40.44
2023-03-22T10:59:06.974Z,40.49
2023-03-22T11:03:07.016Z,40.49
2023-03-22T11:07:06.900Z,40.52
2023-03-22T11:11:06.887Z,40.52
2023-03-22T11:15:06.851Z,40.50
2023-03-22T11:19:06.835Z,40.52
2023-03-22T11:23:06.804Z,40.49
2023-03-22T11:27:06.815Z,40.52
2023-03-22T11:31:06.779Z,40.50
2023-03-22T11:35:06.694Z,40.46
2023-03-22T11:39:06.643Z,40.48
2023-03-22T11:43:06.614Z,40.43
2023-03-22T11:47:06.587Z,40.43
2023-03-22T11:51:06.521Z,40.40
2023-03-22T11:55:06.489Z,40.42
2023-03-22T11:59:06.555Z,40.38
2023-03-22T12:03:06.473Z,40.39
2023-03-22T12:07:06.310Z,40.37
2023-03-22T12:11:06.309Z,40.32
2023-03-22T12:15:06.291Z,40.33
2023-03-22T12:19:06.150Z,40.35
2023-03-22T12:23:06.091Z,40.27
2023-03-22T12:27:06.004Z,40.29
2023-03-22T12:31:05.956Z,40.26
2023-03-22T12:35:16.702Z,40.25
2023-03-22T12:39:07.064Z,40.20
2023-03-22T12:43:05.313Z,40.19
2023-03-22T12:47:05.165Z,40.16
2023-03-22T12:51:05.009Z,40.14
2023-03-22T12:55:07.567Z,40.11
2023-03-22T12:59:04.645Z,40.11
2023-03-22T13:03:04.550Z,40.09
2023-03-22T13:07:04.099Z,40.07
2023-03-22T13:11:03.886Z,40.05
2023-03-22T13:15:03.692Z,40.07
2023-03-22T13:19:03.328Z,40.03
2023-03-22T13:23:03.055Z,39.99
2023-03-22T13:27:02.820Z,39.99
2023-03-22T13:31:02.488Z,39.96
2023-03-22T13:35:02.227Z,39.95
2023-03-22T13:39:01.949Z,39.96
2023-03-22T13:43:01.694Z,39.91
2023-03-22T13:47:01.452Z,39.89
2023-03-22T13:51:01.198Z,39.87
2023-03-22T13:55:01.012Z,39.84
2023-03-22T13:59:00.917Z,39.84
2023-03-22T14:03:01.044Z,39.78
2023-03-22T14:07:00.686Z,39.77
2023-03-22T14:11:00.529Z,39.76
2023-03-22T14:15:00.399Z,39.74
2023-03-22T14:19:07.347Z,39.69
2023-03-22T14:48:07.302Z,39.60
2023-03-22T14:52:07.297Z,39.54
2023-03-22T14:56:07.252Z,39.48
2023-03-22T15:00:07.231Z,39.47
2023-03-22T15:04:07.226Z,39.41
2023-03-22T15:08:07.216Z,39.41
2023-03-22T15:12:07.198Z,39.39
2023-03-22T15:16:07.223Z,39.36
2023-03-22T15:20:07.196Z,39.36
2023-03-22T15:24:07.186Z,39.30
2023-03-22T15:28:07.179Z,39.30
2023-03-22T15:32:07.165Z,39.24
2023-03-22T15:36:07.176Z,39.21
2023-03-22T15:40:07.215Z,39.18
2023-03-22T15:44:07.150Z,39.09
2023-03-22T15:48:07.271Z,39.11
2023-03-22T15:52:07.412Z,39.08
2023-03-22T15:56:07.525Z,39.06
2023-03-22T16:00:07.646Z,39.02
2023-03-22T16:04:07.755Z,39.01
2023-03-22T16:08:07.879Z,38.98
2023-03-22T16:12:07.962Z,38.90
2023-03-22T16:16:08.030Z,38.89
2023-03-22T16:20:08.146Z,38.85
2023-03-22T16:24:08.169Z,38.82
2023-03-22T16:28:08.243Z,38.75
2023-03-22T16:32:08.325Z,38.75
2023-03-22T16:36:10.227Z,38.67
2023-03-22T16:40:08.478Z,38.63
2023-03-22T16:44:08.546Z,38.63
2023-03-22T16:48:08.608Z,38.59
2023-03-22T16:52:08.671Z,38.58
2023-03-22T16:56:08.728Z,38.55
2023-03-22T17:00:08.991Z,38.51
2023-03-22T17:04:08.883Z,38.49
2023-03-22T17:08:08.936Z,38.44
2023-03-22T17:12:08.999Z,38.42
2023-03-22T17:16:09.084Z,38.37
2023-03-22T17:20:09.135Z,38.36
2023-03-22T17:24:09.229Z,38.30
2023-03-22T17:28:09.297Z,38.28
2023-03-22T17:32:13.830Z,38.28
2023-03-22T17:36:10.401Z,38.27
2023-03-22T17:40:28.303Z,38.21
2023-03-22T17:44:10.225Z,38.19
2023-03-22T17:48:09.228Z,38.17
2023-03-22T17:52:09.134Z,38.12
2023-03-22T17:56:42.152Z,38.12
2023-03-22T18:00:10.113Z,38.15
2023-03-22T18:04:09.042Z,38.10
2023-03-22T18:08:26.353Z,38.04
2023-03-22T18:12:09.974Z,38.00
2023-03-22T18:16:08.938Z,37.97
2023-03-22T18:20:17.621Z,37.94
2023-03-22T18:24:08.824Z,37.89
2023-03-22T18:28:08.820Z,37.90
2023-03-22T18:32:17.209Z,37.90
2023-03-22T18:36:09.711Z,37.87
2023-03-22T18:40:48.679Z,37.83
2023-03-22T18:44:09.596Z,37.84
2023-03-22T18:48:08.545Z,37.80
2023-03-22T18:52:36.188Z,37.76
2023-03-22T18:56:09.902Z,37.74
2023-03-22T19:00:08.411Z,37.75
2023-03-22T19:04:08.369Z,37.74
2023-03-22T19:08:25.784Z,37.69
2023-03-22T19:12:09.323Z,37.67
2023-03-22T19:16:08.301Z,37.67
2023-03-22T19:20:08.285Z,37.64
2023-03-22T19:24:08.294Z,37.64
2023-03-22T19:28:08.406Z,37.61
2023-03-22T19:32:08.536Z,37.58
2023-03-22T19:36:08.669Z,37.55
2023-03-22T19:41:06.162Z,37.52
2023-03-22T19:44:09.690Z,37.47
2023-03-22T19:48:08.685Z,37.46
2023-03-22T19:52:08.598Z,37.39
2023-03-22T19:56:08.640Z,37.39
2023-03-22T20:00:43.802Z,37.37
2023-03-22T20:04:09.690Z,37.38
2023-03-22T20:08:10.382Z,37.35
2023-03-22T20:12:08.672Z,37.36
2023-03-22T20:16:08.667Z,37.32
2023-03-22T20:20:08.748Z,37.27
2023-03-22T20:24:08.857Z,37.27
2023-03-22T20:28:16.086Z,37.25
2023-03-22T20:32:09.140Z,37.25
2023-03-22T20:36:09.156Z,37.26
2023-03-22T20:40:09.060Z,37.27
2023-03-22T20:44:09.039Z,37.23
2023-03-22T20:48:08.973Z,37.19
2023-03-22T20:52:08.934Z,37.16
2023-03-22T20:56:08.901Z,37.17
2023-03-22T21:00:08.876Z,37.17
2023-03-22T21:04:08.856Z,37.13
2023-03-22T21:08:08.922Z,37.13
2023-03-22T21:12:09.071Z,37.11
2023-03-22T21:16:09.109Z,37.08
2023-03-22T21:20:09.193Z,37.07
2023-03-22T21:24:09.273Z,37.07
2023-03-22T21:28:09.364Z,37.05
2023-03-22T21:32:09.459Z,37.01
2023-03-22T21:36:09.591Z,37.01
2023-03-22T21:40:09.632Z,36.99
2023-03-22T21:44:10.122Z,36.99
2023-03-22T21:48:09.799Z,37.00
2023-03-22T21:52:09.890Z,36.99
2023-03-22T21:56:09.951Z,37.00
2023-03-22T22:00:10.070Z,36.96
2023-03-22T22:04:10.152Z,36.96
2023-03-22T22:08:10.234Z,36.99
2023-03-22T22:12:10.330Z,36.97
2023-03-22T22:16:10.385Z,36.89
2023-03-22T22:20:10.487Z,36.96
2023-03-22T22:24:10.560Z,36.92
2023-03-22T22:28:10.643Z,36.93
2023-03-22T22:32:10.748Z,36.94
2023-03-22T22:36:10.831Z,36.93
2023-03-22T22:40:10.936Z,36.95
2023-03-22T22:44:11.028Z,36.91
2023-03-22T22:48:11.134Z,36.91
2023-03-22T22:52:11.226Z,36.88
2023-03-22T22:56:11.341Z,36.90
2023-03-22T23:00:11.449Z,36.91
2023-03-22T23:04:11.555Z,36.92
2023-03-22T23:08:11.659Z,36.91
2023-03-22T23:12:11.753Z,36.91
2023-03-22T23:16:11.866Z,36.92
2023-03-22T23:20:11.955Z,36.94
2023-03-22T23:24:12.054Z,36.94
2023-03-22T23:28:12.141Z,36.92
2023-03-22T23:32:12.229Z,36.92
2023-03-22T23:36:12.297Z,36.94
2023-03-22T23:40:12.393Z,36.92
2023-03-22T23:44:12.491Z,36.96
2023-03-22T23:48:12.598Z,36.98
2023-03-22T23:52:12.680Z,36.96
2023-03-22T23:56:12.784Z,36.96
